sensor_id;sensor_type;location;lat;lon;timestamp;P1;durP1;ratioP1;P2;durP2;ratioP2
80404;SDS011;69733;48.744;9.176;2023-05-07T00:02:01;2.67;;;1.80;;
80404;SDS011;69733;48.744;9.176;2023-05-07T00:04:26;3.35;;;2.03;;
80404;SDS011;69733;48.744;9.176;2023-05-07T00:06:53;3.42;;;2.13;;
80404;SDS011;69733;48.744;9.176;2023-05-07T00:09:18;3.28;;;1.98;;
80404;SDS011;69733;48.744;9.176;2023-05-07T00:11:43;4.38;;;2.00;;
80404;SDS011;69733;48.744;9.176;2023-05-07T00:14:09;3.47;;;1.92;;
80404;SDS011;69733;48.744;9.176;2023-05-07T00:16:34;3.03;;;1.83;;
80404;SDS011;69733;48.744;9.176;2023-05-07T00:18:59;3.20;;;2.00;;
80404;SDS011;69733;48.744;9.176;2023-05-07T00:21:25;2.80;;;1.67;;
80404;SDS011;69733;48.744;9.176;2023-05-07T00:23:53;2.97;;;2.15;;
80404;SDS011;69733;48.744;9.176;2023-05-07T00:26:19;3.15;;;1.92;;
80404;SDS011;69733;48.744;9.176;2023-05-07T00:28:45;2.97;;;2.05;;
80404;SDS011;69733;48.744;9.176;2023-05-07T00:31:10;2.73;;;1.70;;
80404;SDS011;69733;48.744;9.176;2023-05-07T00:33:36;2.60;;;1.67;;
80404;SDS011;69733;48.744;9.176;2023-05-07T00:36:01;2.93;;;1.80;;
80404;SDS011;69733;48.744;9.176;2023-05-07T00:38:26;3.17;;;1.80;;
80404;SDS011;69733;48.744;9.176;2023-05-07T00:40:52;3.10;;;2.00;;
80404;SDS011;69733;48.744;9.176;2023-05-07T00:43:17;2.97;;;1.80;;
80404;SDS011;69733;48.744;9.176;2023-05-07T00:45:43;3.30;;;1.90;;
80404;SDS011;69733;48.744;9.176;2023-05-07T00:48:08;2.53;;;1.50;;
80404;SDS011;69733;48.744;9.176;2023-05-07T00:50:33;3.03;;;2.03;;
80404;SDS011;69733;48.744;9.176;2023-05-07T00:52:59;2.60;;;1.80;;
80404;SDS011;69733;48.744;9.176;2023-05-07T00:55:25;3.15;;;1.85;;
80404;SDS011;69733;48.744;9.176;2023-05-07T00:57:50;2.72;;;1.77;;
80404;SDS011;69733;48.744;9.176;2023-05-07T01:00:16;3.25;;;2.03;;
80404;SDS011;69733;48.744;9.176;2023-05-07T01:02:43;3.65;;;2.00;;
80404;SDS011;69733;48.744;9.176;2023-05-07T01:05:09;3.28;;;1.98;;
80404;SDS011;69733;48.744;9.176;2023-05-07T01:07:40;3.15;;;1.95;;
80404;SDS011;69733;48.744;9.176;2023-05-07T01:10:06;2.85;;;1.98;;
80404;SDS011;69733;48.744;9.176;2023-05-07T01:12:32;4.03;;;1.75;;
80404;SDS011;69733;48.744;9.176;2023-05-07T01:14:59;3.30;;;1.60;;
80404;SDS011;69733;48.744;9.176;2023-05-07T01:17:24;3.50;;;1.95;;
80404;SDS011;69733;48.744;9.176;2023-05-07T01:19:50;3.60;;;1.90;;
80404;SDS011;69733;48.744;9.176;2023-05-07T01:22:16;3.28;;;1.48;;
80404;SDS011;69733;48.744;9.176;2023-05-07T01:24:46;5.28;;;1.70;;
80404;SDS011;69733;48.744;9.176;2023-05-07T01:27:11;2.53;;;1.40;;
80404;SDS011;69733;48.744;9.176;2023-05-07T01:29:37;2.53;;;1.43;;
80404;SDS011;69733;48.744;9.176;2023-05-07T01:32:02;2.93;;;1.33;;
80404;SDS011;69733;48.744;9.176;2023-05-07T01:34:30;2.75;;;1.58;;
80404;SDS011;69733;48.744;9.176;2023-05-07T01:36:57;2.67;;;1.48;;
80404;SDS011;69733;48.744;9.176;2023-05-07T01:39:24;2.10;;;1.20;;
80404;SDS011;69733;48.744;9.176;2023-05-07T01:41:51;2.72;;;1.60;;
80404;SDS011;69733;48.744;9.176;2023-05-07T01:44:19;2.90;;;1.75;;
80404;SDS011;69733;48.744;9.176;2023-05-07T01:46:45;2.95;;;1.48;;
80404;SDS011;69733;48.744;9.176;2023-05-07T01:49:11;3.25;;;1.77;;
80404;SDS011;69733;48.744;9.176;2023-05-07T01:51:36;2.13;;;1.48;;
80404;SDS011;69733;48.744;9.176;2023-05-07T01:54:02;2.67;;;1.38;;
80404;SDS011;69733;48.744;9.176;2023-05-07T01:56:27;2.85;;;1.60;;
80404;SDS011;69733;48.744;9.176;2023-05-07T01:58:52;3.90;;;1.38;;
80404;SDS011;69733;48.744;9.176;2023-05-07T02:01:18;2.83;;;1.70;;
80404;SDS011;69733;48.744;9.176;2023-05-07T02:03:43;2.73;;;1.37;;
80404;SDS011;69733;48.744;9.176;2023-05-07T02:06:09;2.63;;;1.52;;
80404;SDS011;69733;48.744;9.176;2023-05-07T02:08:34;2.40;;;1.55;;
80404;SDS011;69733;48.744;9.176;2023-05-07T02:11:00;4.10;;;1.92;;
80404;SDS011;69733;48.744;9.176;2023-05-07T02:13:26;2.92;;;1.60;;
80404;SDS011;69733;48.744;9.176;2023-05-07T02:15:54;3.58;;;1.40;;
80404;SDS011;69733;48.744;9.176;2023-05-07T02:18:19;3.10;;;1.42;;
80404;SDS011;69733;48.744;9.176;2023-05-07T02:20:45;2.87;;;1.70;;
80404;SDS011;69733;48.744;9.176;2023-05-07T02:23:10;2.77;;;1.43;;
80404;SDS011;69733;48.744;9.176;2023-05-07T02:25:35;3.87;;;1.87;;
80404;SDS011;69733;48.744;9.176;2023-05-07T02:28:00;4.60;;;1.80;;
80404;SDS011;69733;48.744;9.176;2023-05-07T02:30:26;2.30;;;1.50;;
80404;SDS011;69733;48.744;9.176;2023-05-07T02:32:51;2.78;;;1.80;;
80404;SDS011;69733;48.744;9.176;2023-05-07T02:35:16;3.50;;;1.70;;
80404;SDS011;69733;48.744;9.176;2023-05-07T02:37:42;3.13;;;1.65;;
80404;SDS011;69733;48.744;9.176;2023-05-07T02:40:07;2.50;;;1.40;;
80404;SDS011;69733;48.744;9.176;2023-05-07T02:42:33;2.20;;;1.20;;
80404;SDS011;69733;48.744;9.176;2023-05-07T02:44:58;3.25;;;1.83;;
80404;SDS011;69733;48.744;9.176;2023-05-07T02:47:24;3.25;;;1.67;;
80404;SDS011;69733;48.744;9.176;2023-05-07T02:49:51;4.68;;;1.83;;
80404;SDS011;69733;48.744;9.176;2023-05-07T02:52:17;3.08;;;1.58;;
80404;SDS011;69733;48.744;9.176;2023-05-07T02:54:43;2.93;;;1.80;;
80404;SDS011;69733;48.744;9.176;2023-05-07T02:57:08;3.27;;;1.60;;
80404;SDS011;69733;48.744;9.176;2023-05-07T02:59:33;2.50;;;1.60;;
80404;SDS011;69733;48.744;9.176;2023-05-07T03:01:58;3.60;;;1.83;;
80404;SDS011;69733;48.744;9.176;2023-05-07T03:04:24;3.00;;;1.58;;
80404;SDS011;69733;48.744;9.176;2023-05-07T03:06:49;3.17;;;1.70;;
80404;SDS011;69733;48.744;9.176;2023-05-07T03:09:14;3.13;;;1.93;;
80404;SDS011;69733;48.744;9.176;2023-05-07T03:11:40;3.33;;;1.80;;
80404;SDS011;69733;48.744;9.176;2023-05-07T03:14:05;2.70;;;1.70;;
80404;SDS011;69733;48.744;9.176;2023-05-07T03:16:30;2.87;;;1.30;;
80404;SDS011;69733;48.744;9.176;2023-05-07T03:18:56;3.42;;;1.70;;
80404;SDS011;69733;48.744;9.176;2023-05-07T03:21:21;2.97;;;1.67;;
80404;SDS011;69733;48.744;9.176;2023-05-07T03:23:46;2.60;;;1.42;;
80404;SDS011;69733;48.744;9.176;2023-05-07T03:26:12;2.33;;;1.27;;
80404;SDS011;69733;48.744;9.176;2023-05-07T03:28:37;4.00;;;1.70;;
80404;SDS011;69733;48.744;9.176;2023-05-07T03:31:02;2.97;;;1.70;;
80404;SDS011;69733;48.744;9.176;2023-05-07T03:33:28;2.47;;;1.63;;
80404;SDS011;69733;48.744;9.176;2023-05-07T03:35:53;3.27;;;1.60;;
80404;SDS011;69733;48.744;9.176;2023-05-07T03:38:18;2.85;;;1.40;;
80404;SDS011;69733;48.744;9.176;2023-05-07T03:40:44;3.63;;;1.70;;
80404;SDS011;69733;48.744;9.176;2023-05-07T03:43:09;2.53;;;1.90;;
80404;SDS011;69733;48.744;9.176;2023-05-07T03:45:35;3.63;;;1.40;;
80404;SDS011;69733;48.744;9.176;2023-05-07T03:48:00;3.70;;;1.60;;
80404;SDS011;69733;48.744;9.176;2023-05-07T03:50:25;4.15;;;1.80;;
80404;SDS011;69733;48.744;9.176;2023-05-07T03:52:51;3.67;;;1.70;;
80404;SDS011;69733;48.744;9.176;2023-05-07T03:55:16;2.70;;;1.70;;
80404;SDS011;69733;48.744;9.176;2023-05-07T03:57:41;3.22;;;1.73;;
80404;SDS011;69733;48.744;9.176;2023-05-07T04:00:07;2.70;;;1.75;;
80404;SDS011;69733;48.744;9.176;2023-05-07T04:02:33;3.03;;;1.75;;
80404;SDS011;69733;48.744;9.176;2023-05-07T04:04:58;3.25;;;1.70;;
80404;SDS011;69733;48.744;9.176;2023-05-07T04:07:23;3.20;;;1.70;;
80404;SDS011;69733;48.744;9.176;2023-05-07T04:09:48;3.08;;;1.92;;
80404;SDS011;69733;48.744;9.176;2023-05-07T04:12:14;3.73;;;2.10;;
80404;SDS011;69733;48.744;9.176;2023-05-07T04:14:39;3.72;;;1.90;;
80404;SDS011;69733;48.744;9.176;2023-05-07T04:17:05;3.17;;;1.97;;
80404;SDS011;69733;48.744;9.176;2023-05-07T04:19:32;2.83;;;1.50;;
80404;SDS011;69733;48.744;9.176;2023-05-07T04:21:58;3.10;;;1.80;;
80404;SDS011;69733;48.744;9.176;2023-05-07T04:24:23;5.67;;;1.97;;
80404;SDS011;69733;48.744;9.176;2023-05-07T04:26:48;3.33;;;2.10;;
80404;SDS011;69733;48.744;9.176;2023-05-07T04:29:16;2.97;;;1.77;;
80404;SDS011;69733;48.744;9.176;2023-05-07T04:31:41;2.60;;;1.65;;
80404;SDS011;69733;48.744;9.176;2023-05-07T04:34:09;2.72;;;1.55;;
80404;SDS011;69733;48.744;9.176;2023-05-07T04:36:35;2.88;;;1.60;;
80404;SDS011;69733;48.744;9.176;2023-05-07T04:39:02;3.20;;;1.80;;
80404;SDS011;69733;48.744;9.176;2023-05-07T04:41:27;3.35;;;1.50;;
80404;SDS011;69733;48.744;9.176;2023-05-07T04:43:53;2.85;;;2.00;;
80404;SDS011;69733;48.744;9.176;2023-05-07T04:46:18;3.20;;;1.63;;
80404;SDS011;69733;48.744;9.176;2023-05-07T04:48:43;2.97;;;1.65;;
80404;SDS011;69733;48.744;9.176;2023-05-07T04:51:09;3.85;;;1.73;;
80404;SDS011;69733;48.744;9.176;2023-05-07T04:53:34;3.23;;;1.50;;
80404;SDS011;69733;48.744;9.176;2023-05-07T04:55:59;3.17;;;1.73;;
80404;SDS011;69733;48.744;9.176;2023-05-07T04:58:25;3.67;;;1.83;;
80404;SDS011;69733;48.744;9.176;2023-05-07T05:00:50;3.28;;;2.38;;
80404;SDS011;69733;48.744;9.176;2023-05-07T05:03:16;2.53;;;1.45;;
80404;SDS011;69733;48.744;9.176;2023-05-07T05:05:41;2.77;;;1.77;;
80404;SDS011;69733;48.744;9.176;2023-05-07T05:08:06;4.25;;;1.80;;
80404;SDS011;69733;48.744;9.176;2023-05-07T05:10:32;2.33;;;1.48;;
80404;SDS011;69733;48.744;9.176;2023-05-07T05:12:57;3.17;;;2.00;;
80404;SDS011;69733;48.744;9.176;2023-05-07T05:15:22;4.17;;;1.60;;
80404;SDS011;69733;48.744;9.176;2023-05-07T05:17:48;4.57;;;1.70;;
80404;SDS011;69733;48.744;9.176;2023-05-07T05:20:13;2.50;;;1.77;;
80404;SDS011;69733;48.744;9.176;2023-05-07T05:22:39;3.30;;;1.70;;
80404;SDS011;69733;48.744;9.176;2023-05-07T05:25:05;3.60;;;1.83;;
80404;SDS011;69733;48.744;9.176;2023-05-07T05:27:30;3.50;;;1.30;;
80404;SDS011;69733;48.744;9.176;2023-05-07T05:29:56;2.83;;;1.40;;
80404;SDS011;69733;48.744;9.176;2023-05-07T05:32:21;3.07;;;1.50;;
80404;SDS011;69733;48.744;9.176;2023-05-07T05:34:46;2.80;;;1.70;;
80404;SDS011;69733;48.744;9.176;2023-05-07T05:37:11;3.23;;;1.77;;
80404;SDS011;69733;48.744;9.176;2023-05-07T05:39:37;2.63;;;1.75;;
80404;SDS011;69733;48.744;9.176;2023-05-07T05:42:02;2.80;;;1.97;;
80404;SDS011;69733;48.744;9.176;2023-05-07T05:44:27;3.92;;;1.80;;
80404;SDS011;69733;48.744;9.176;2023-05-07T05:46:53;2.00;;;1.37;;
80404;SDS011;69733;48.744;9.176;2023-05-07T05:49:20;3.55;;;1.63;;
80404;SDS011;69733;48.744;9.176;2023-05-07T05:51:45;3.63;;;2.00;;
80404;SDS011;69733;48.744;9.176;2023-05-07T05:54:11;3.77;;;1.90;;
80404;SDS011;69733;48.744;9.176;2023-05-07T05:56:36;3.27;;;2.10;;
80404;SDS011;69733;48.744;9.176;2023-05-07T05:59:02;3.80;;;2.10;;
80404;SDS011;69733;48.744;9.176;2023-05-07T06:01:27;3.10;;;2.15;;
80404;SDS011;69733;48.744;9.176;2023-05-07T06:03:53;2.60;;;1.92;;
80404;SDS011;69733;48.744;9.176;2023-05-07T06:06:18;3.40;;;2.63;;
80404;SDS011;69733;48.744;9.176;2023-05-07T06:08:43;3.53;;;2.42;;
80404;SDS011;69733;48.744;9.176;2023-05-07T06:11:09;3.28;;;2.50;;
80404;SDS011;69733;48.744;9.176;2023-05-07T06:13:34;4.10;;;2.20;;
80404;SDS011;69733;48.744;9.176;2023-05-07T06:15:59;4.38;;;2.60;;
80404;SDS011;69733;48.744;9.176;2023-05-07T06:18:25;3.40;;;2.42;;
80404;SDS011;69733;48.744;9.176;2023-05-07T06:20:51;3.22;;;2.03;;
80404;SDS011;69733;48.744;9.176;2023-05-07T06:23:18;3.58;;;2.22;;
80404;SDS011;69733;48.744;9.176;2023-05-07T06:25:50;3.58;;;2.00;;
80404;SDS011;69733;48.744;9.176;2023-05-07T06:28:15;2.78;;;2.30;;
80404;SDS011;69733;48.744;9.176;2023-05-07T06:30:41;3.17;;;2.10;;
80404;SDS011;69733;48.744;9.176;2023-05-07T06:33:06;3.95;;;2.53;;
80404;SDS011;69733;48.744;9.176;2023-05-07T06:35:31;3.80;;;2.33;;
80404;SDS011;69733;48.744;9.176;2023-05-07T06:37:57;3.00;;;2.17;;
80404;SDS011;69733;48.744;9.176;2023-05-07T06:40:22;4.50;;;2.30;;
80404;SDS011;69733;48.744;9.176;2023-05-07T06:42:47;4.18;;;2.13;;
80404;SDS011;69733;48.744;9.176;2023-05-07T06:45:13;3.90;;;2.67;;
80404;SDS011;69733;48.744;9.176;2023-05-07T06:47:38;4.00;;;2.60;;
80404;SDS011;69733;48.744;9.176;2023-05-07T06:50:03;5.17;;;2.83;;
80404;SDS011;69733;48.744;9.176;2023-05-07T06:52:29;3.95;;;2.67;;
80404;SDS011;69733;48.744;9.176;2023-05-07T06:54:55;3.08;;;2.70;;
80404;SDS011;69733;48.744;9.176;2023-05-07T06:57:20;4.03;;;2.57;;
80404;SDS011;69733;48.744;9.176;2023-05-07T06:59:45;4.50;;;2.70;;
80404;SDS011;69733;48.744;9.176;2023-05-07T07:02:11;3.33;;;2.55;;
80404;SDS011;69733;48.744;9.176;2023-05-07T07:04:36;5.68;;;2.42;;
80404;SDS011;69733;48.744;9.176;2023-05-07T07:07:01;3.80;;;2.50;;
80404;SDS011;69733;48.744;9.176;2023-05-07T07:09:26;4.05;;;2.80;;
80404;SDS011;69733;48.744;9.176;2023-05-07T07:11:52;3.63;;;2.40;;
80404;SDS011;69733;48.744;9.176;2023-05-07T07:14:17;4.00;;;2.90;;
80404;SDS011;69733;48.744;9.176;2023-05-07T07:16:42;3.70;;;2.90;;
80404;SDS011;69733;48.744;9.176;2023-05-07T07:19:08;5.00;;;3.23;;
80404;SDS011;69733;48.744;9.176;2023-05-07T07:21:33;3.70;;;2.47;;
80404;SDS011;69733;48.744;9.176;2023-05-07T07:23:58;3.93;;;2.63;;
80404;SDS011;69733;48.744;9.176;2023-05-07T07:26:23;4.03;;;2.83;;
80404;SDS011;69733;48.744;9.176;2023-05-07T07:28:49;5.93;;;3.55;;
80404;SDS011;69733;48.744;9.176;2023-05-07T07:31:14;3.97;;;3.23;;
80404;SDS011;69733;48.744;9.176;2023-05-07T07:33:40;4.00;;;3.00;;
80404;SDS011;69733;48.744;9.176;2023-05-07T07:36:05;3.63;;;3.03;;
80404;SDS011;69733;48.744;9.176;2023-05-07T07:38:32;4.32;;;3.40;;
80404;SDS011;69733;48.744;9.176;2023-05-07T07:40:57;4.15;;;3.35;;
80404;SDS011;69733;48.744;9.176;2023-05-07T07:43:23;3.77;;;2.90;;
80404;SDS011;69733;48.744;9.176;2023-05-07T07:45:48;4.10;;;2.90;;
80404;SDS011;69733;48.744;9.176;2023-05-07T07:48:13;5.60;;;3.13;;
80404;SDS011;69733;48.744;9.176;2023-05-07T07:50:39;5.47;;;2.85;;
80404;SDS011;69733;48.744;9.176;2023-05-07T07:53:04;4.85;;;3.25;;
80404;SDS011;69733;48.744;9.176;2023-05-07T07:55:29;4.20;;;3.10;;
80404;SDS011;69733;48.744;9.176;2023-05-07T07:57:56;3.67;;;2.97;;
80404;SDS011;69733;48.744;9.176;2023-05-07T08:00:21;3.50;;;3.20;;
80404;SDS011;69733;48.744;9.176;2023-05-07T08:02:46;4.18;;;3.53;;
80404;SDS011;69733;48.744;9.176;2023-05-07T08:05:12;3.47;;;2.60;;
80404;SDS011;69733;48.744;9.176;2023-05-07T08:07:37;4.97;;;2.90;;
80404;SDS011;69733;48.744;9.176;2023-05-07T08:10:02;4.93;;;2.83;;
80404;SDS011;69733;48.744;9.176;2023-05-07T08:12:28;3.92;;;3.17;;
80404;SDS011;69733;48.744;9.176;2023-05-07T08:14:53;4.85;;;3.50;;
80404;SDS011;69733;48.744;9.176;2023-05-07T08:17:19;4.35;;;3.10;;
80404;SDS011;69733;48.744;9.176;2023-05-07T08:19:47;3.25;;;2.95;;
80404;SDS011;69733;48.744;9.176;2023-05-07T08:22:12;3.20;;;2.50;;
80404;SDS011;69733;48.744;9.176;2023-05-07T08:24:37;4.17;;;3.17;;
80404;SDS011;69733;48.744;9.176;2023-05-07T08:27:03;3.17;;;2.63;;
80404;SDS011;69733;48.744;9.176;2023-05-07T08:29:28;4.57;;;3.50;;
80404;SDS011;69733;48.744;9.176;2023-05-07T08:31:53;3.88;;;3.00;;
80404;SDS011;69733;48.744;9.176;2023-05-07T08:34:19;3.88;;;3.05;;
80404;SDS011;69733;48.744;9.176;2023-05-07T08:36:44;3.55;;;3.22;;
80404;SDS011;69733;48.744;9.176;2023-05-07T08:39:11;3.85;;;2.72;;
80404;SDS011;69733;48.744;9.176;2023-05-07T08:41:37;5.30;;;3.20;;
80404;SDS011;69733;48.744;9.176;2023-05-07T08:44:02;4.93;;;3.47;;
80404;SDS011;69733;48.744;9.176;2023-05-07T08:46:31;3.83;;;3.20;;
80404;SDS011;69733;48.744;9.176;2023-05-07T08:48:57;4.88;;;3.20;;
80404;SDS011;69733;48.744;9.176;2023-05-07T08:51:23;3.60;;;3.15;;
80404;SDS011;69733;48.744;9.176;2023-05-07T08:53:49;3.28;;;2.92;;
80404;SDS011;69733;48.744;9.176;2023-05-07T08:56:15;3.53;;;3.22;;
80404;SDS011;69733;48.744;9.176;2023-05-07T08:58:42;3.70;;;3.17;;
80404;SDS011;69733;48.744;9.176;2023-05-07T09:01:09;3.88;;;3.40;;
80404;SDS011;69733;48.744;9.176;2023-05-07T09:03:38;4.32;;;3.45;;
80404;SDS011;69733;48.744;9.176;2023-05-07T09:06:04;3.25;;;2.95;;
80404;SDS011;69733;48.744;9.176;2023-05-07T09:08:32;3.20;;;2.45;;
80404;SDS011;69733;48.744;9.176;2023-05-07T09:13:23;3.70;;;2.90;;
80404;SDS011;69733;48.744;9.176;2023-05-07T09:15:49;3.65;;;2.92;;
80404;SDS011;69733;48.744;9.176;2023-05-07T09:18:14;3.20;;;2.60;;
80404;SDS011;69733;48.744;9.176;2023-05-07T09:20:40;5.78;;;2.65;;
80404;SDS011;69733;48.744;9.176;2023-05-07T09:23:06;3.70;;;2.72;;
80404;SDS011;69733;48.744;9.176;2023-05-07T09:25:33;4.10;;;2.50;;
80404;SDS011;69733;48.744;9.176;2023-05-07T09:27:59;5.30;;;2.90;;
80404;SDS011;69733;48.744;9.176;2023-05-07T09:30:29;3.17;;;2.67;;
80404;SDS011;69733;48.744;9.176;2023-05-07T09:32:58;3.10;;;2.63;;
80404;SDS011;69733;48.744;9.176;2023-05-07T09:35:25;3.08;;;2.30;;
80404;SDS011;69733;48.744;9.176;2023-05-07T09:37:56;3.08;;;2.20;;
80404;SDS011;69733;48.744;9.176;2023-05-07T09:40:27;2.88;;;2.38;;
80404;SDS011;69733;48.744;9.176;2023-05-07T09:42:53;6.25;;;2.28;;
80404;SDS011;69733;48.744;9.176;2023-05-07T09:45:22;5.07;;;2.40;;
80404;SDS011;69733;48.744;9.176;2023-05-07T09:47:50;3.70;;;2.50;;
80404;SDS011;69733;48.744;9.176;2023-05-07T09:50:20;3.80;;;2.17;;
80404;SDS011;69733;48.744;9.176;2023-05-07T09:52:51;2.42;;;2.10;;
80404;SDS011;69733;48.744;9.176;2023-05-07T09:55:17;3.28;;;2.08;;
80404;SDS011;69733;48.744;9.176;2023-05-07T09:57:43;3.60;;;2.28;;
80404;SDS011;69733;48.744;9.176;2023-05-07T10:00:11;3.88;;;2.72;;
80404;SDS011;69733;48.744;9.176;2023-05-07T10:02:37;3.17;;;2.20;;
80404;SDS011;69733;48.744;9.176;2023-05-07T10:05:11;3.03;;;1.70;;
80404;SDS011;69733;48.744;9.176;2023-05-07T10:07:39;3.83;;;2.15;;
80404;SDS011;69733;48.744;9.176;2023-05-07T10:10:05;2.80;;;2.10;;
80404;SDS011;69733;48.744;9.176;2023-05-07T10:12:31;2.70;;;2.20;;
80404;SDS011;69733;48.744;9.176;2023-05-07T10:15:03;3.40;;;2.47;;
80404;SDS011;69733;48.744;9.176;2023-05-07T10:17:34;3.50;;;2.30;;
80404;SDS011;69733;48.744;9.176;2023-05-07T10:20:23;3.17;;;2.20;;
80404;SDS011;69733;48.744;9.176;2023-05-07T10:22:50;2.75;;;2.30;;
80404;SDS011;69733;48.744;9.176;2023-05-07T10:25:52;3.00;;;2.30;;
80404;SDS011;69733;48.744;9.176;2023-05-07T10:28:10;2.63;;;1.60;;
80404;SDS011;69733;48.744;9.176;2023-05-07T10:33:26;3.20;;;2.13;;
80404;SDS011;69733;48.744;9.176;2023-05-07T10:35:55;3.05;;;2.30;;
80404;SDS011;69733;48.744;9.176;2023-05-07T10:38:24;3.45;;;2.35;;
80404;SDS011;69733;48.744;9.176;2023-05-07T10:40:50;4.00;;;2.22;;
80404;SDS011;69733;48.744;9.176;2023-05-07T10:43:16;3.45;;;2.50;;
80404;SDS011;69733;48.744;9.176;2023-05-07T10:45:41;3.20;;;2.25;;
80404;SDS011;69733;48.744;9.176;2023-05-07T10:50:44;3.58;;;2.33;;
80404;SDS011;69733;48.744;9.176;2023-05-07T10:55:41;3.42;;;2.13;;
80404;SDS011;69733;48.744;9.176;2023-05-07T11:01:02;3.35;;;2.50;;
80404;SDS011;69733;48.744;9.176;2023-05-07T11:03:28;3.30;;;2.10;;
80404;SDS011;69733;48.744;9.176;2023-05-07T11:06:10;5.03;;;2.50;;
80404;SDS011;69733;48.744;9.176;2023-05-07T11:08:52;2.90;;;1.90;;
80404;SDS011;69733;48.744;9.176;2023-05-07T11:11:17;3.47;;;2.20;;
80404;SDS011;69733;48.744;9.176;2023-05-07T11:13:45;3.13;;;2.15;;
80404;SDS011;69733;48.744;9.176;2023-05-07T11:16:24;2.20;;;1.85;;
80404;SDS011;69733;48.744;9.176;2023-05-07T11:18:55;3.22;;;2.20;;
80404;SDS011;69733;48.744;9.176;2023-05-07T11:21:42;2.80;;;1.92;;
80404;SDS011;69733;48.744;9.176;2023-05-07T11:24:08;2.80;;;1.65;;
80404;SDS011;69733;48.744;9.176;2023-05-07T11:26:42;3.22;;;2.22;;
80404;SDS011;69733;48.744;9.176;2023-05-07T11:29:12;4.10;;;3.30;;
80404;SDS011;69733;48.744;9.176;2023-05-07T11:31:38;3.25;;;2.40;;
80404;SDS011;69733;48.744;9.176;2023-05-07T11:34:04;3.35;;;2.00;;
80404;SDS011;69733;48.744;9.176;2023-05-07T11:36:30;3.67;;;2.20;;
80404;SDS011;69733;48.744;9.176;2023-05-07T11:38:57;3.42;;;2.10;;
80404;SDS011;69733;48.744;9.176;2023-05-07T11:41:23;3.20;;;1.80;;
80404;SDS011;69733;48.744;9.176;2023-05-07T11:43:59;3.70;;;2.17;;
80404;SDS011;69733;48.744;9.176;2023-05-07T11:46:25;2.95;;;2.28;;
80404;SDS011;69733;48.744;9.176;2023-05-07T11:48:51;3.00;;;1.80;;
80404;SDS011;69733;48.744;9.176;2023-05-07T11:51:20;3.38;;;2.00;;
80404;SDS011;69733;48.744;9.176;2023-05-07T11:53:47;2.92;;;2.00;;
80404;SDS011;69733;48.744;9.176;2023-05-07T11:56:14;3.88;;;2.45;;
80404;SDS011;69733;48.744;9.176;2023-05-07T11:58:41;2.83;;;1.80;;
80404;SDS011;69733;48.744;9.176;2023-05-07T12:01:08;3.20;;;1.70;;
80404;SDS011;69733;48.744;9.176;2023-05-07T12:03:35;3.03;;;2.60;;
80404;SDS011;69733;48.744;9.176;2023-05-07T12:06:02;3.05;;;2.05;;
80404;SDS011;69733;48.744;9.176;2023-05-07T12:08:30;3.45;;;2.53;;
80404;SDS011;69733;48.744;9.176;2023-05-07T12:10:55;3.47;;;1.92;;
80404;SDS011;69733;48.744;9.176;2023-05-07T12:13:21;2.95;;;1.92;;
80404;SDS011;69733;48.744;9.176;2023-05-07T12:15:52;3.03;;;2.20;;
80404;SDS011;69733;48.744;9.176;2023-05-07T12:18:18;4.00;;;2.25;;
80404;SDS011;69733;48.744;9.176;2023-05-07T12:20:44;3.50;;;2.00;;
80404;SDS011;69733;48.744;9.176;2023-05-07T12:23:10;2.85;;;1.70;;
80404;SDS011;69733;48.744;9.176;2023-05-07T12:25:36;2.78;;;1.20;;
80404;SDS011;69733;48.744;9.176;2023-05-07T12:28:03;3.42;;;0.98;;
80404;SDS011;69733;48.744;9.176;2023-05-07T12:30:30;2.45;;;1.15;;
80404;SDS011;69733;48.744;9.176;2023-05-07T12:32:57;2.33;;;1.20;;
80404;SDS011;69733;48.744;9.176;2023-05-07T12:38:01;5.28;;;1.85;;
80404;SDS011;69733;48.744;9.176;2023-05-07T12:41:02;6.95;;;2.30;;
80404;SDS011;69733;48.744;9.176;2023-05-07T12:43:21;3.92;;;1.60;;
80404;SDS011;69733;48.744;9.176;2023-05-07T12:45:50;3.95;;;1.10;;
80404;SDS011;69733;48.744;9.176;2023-05-07T12:48:17;1.98;;;1.10;;
80404;SDS011;69733;48.744;9.176;2023-05-07T12:53:17;2.60;;;1.08;;
80404;SDS011;69733;48.744;9.176;2023-05-07T12:55:47;2.95;;;1.23;;
80404;SDS011;69733;48.744;9.176;2023-05-07T12:58:14;3.17;;;1.48;;
80404;SDS011;69733;48.744;9.176;2023-05-07T13:00:48;4.03;;;1.00;;
80404;SDS011;69733;48.744;9.176;2023-05-07T13:03:33;3.80;;;1.15;;
80404;SDS011;69733;48.744;9.176;2023-05-07T13:06:07;10.82;;;1.95;;
80404;SDS011;69733;48.744;9.176;2023-05-07T13:08:38;9.23;;;2.35;;
80404;SDS011;69733;48.744;9.176;2023-05-07T13:11:06;4.82;;;1.48;;
80404;SDS011;69733;48.744;9.176;2023-05-07T13:13:33;4.93;;;1.38;;
80404;SDS011;69733;48.744;9.176;2023-05-07T13:16:00;4.63;;;1.70;;
80404;SDS011;69733;48.744;9.176;2023-05-07T13:18:26;4.88;;;1.27;;
80404;SDS011;69733;48.744;9.176;2023-05-07T13:20:52;5.28;;;1.80;;
80404;SDS011;69733;48.744;9.176;2023-05-07T13:23:18;4.75;;;1.40;;
80404;SDS011;69733;48.744;9.176;2023-05-07T13:25:44;3.85;;;1.60;;
80404;SDS011;69733;48.744;9.176;2023-05-07T13:28:09;5.43;;;1.57;;
80404;SDS011;69733;48.744;9.176;2023-05-07T13:30:35;1.63;;;0.80;;
80404;SDS011;69733;48.744;9.176;2023-05-07T13:33:00;3.78;;;1.30;;
80404;SDS011;69733;48.744;9.176;2023-05-07T13:35:26;2.25;;;1.10;;
80404;SDS011;69733;48.744;9.176;2023-05-07T13:37:51;3.60;;;1.02;;
80404;SDS011;69733;48.744;9.176;2023-05-07T13:40:17;3.35;;;1.15;;
80404;SDS011;69733;48.744;9.176;2023-05-07T13:42:43;2.45;;;0.68;;
80404;SDS011;69733;48.744;9.176;2023-05-07T13:45:08;2.27;;;0.90;;
80404;SDS011;69733;48.744;9.176;2023-05-07T13:47:34;1.70;;;0.70;;
80404;SDS011;69733;48.744;9.176;2023-05-07T13:50:02;2.78;;;1.05;;
80404;SDS011;69733;48.744;9.176;2023-05-07T13:52:28;3.67;;;1.25;;
80404;SDS011;69733;48.744;9.176;2023-05-07T13:54:54;3.60;;;1.40;;
80404;SDS011;69733;48.744;9.176;2023-05-07T13:57:20;3.45;;;1.38;;
80404;SDS011;69733;48.744;9.176;2023-05-07T13:59:45;4.18;;;1.88;;
80404;SDS011;69733;48.744;9.176;2023-05-07T14:02:10;4.03;;;1.50;;
80404;SDS011;69733;48.744;9.176;2023-05-07T14:04:37;3.37;;;1.70;;
80404;SDS011;69733;48.744;9.176;2023-05-07T14:07:02;3.33;;;1.40;;
80404;SDS011;69733;48.744;9.176;2023-05-07T14:09:28;3.00;;;1.60;;
80404;SDS011;69733;48.744;9.176;2023-05-07T14:11:53;4.35;;;1.75;;
80404;SDS011;69733;48.744;9.176;2023-05-07T14:14:18;5.20;;;1.80;;
80404;SDS011;69733;48.744;9.176;2023-05-07T14:16:44;3.77;;;1.70;;
80404;SDS011;69733;48.744;9.176;2023-05-07T14:19:12;3.67;;;1.73;;
80404;SDS011;69733;48.744;9.176;2023-05-07T14:21:37;4.30;;;2.13;;
80404;SDS011;69733;48.744;9.176;2023-05-07T14:24:03;3.10;;;2.45;;
80404;SDS011;69733;48.744;9.176;2023-05-07T14:26:29;2.80;;;2.05;;
80404;SDS011;69733;48.744;9.176;2023-05-07T14:28:55;4.13;;;1.80;;
80404;SDS011;69733;48.744;9.176;2023-05-07T14:31:23;4.47;;;1.60;;
80404;SDS011;69733;48.744;9.176;2023-05-07T14:33:48;4.63;;;1.83;;
80404;SDS011;69733;48.744;9.176;2023-05-07T14:36:15;3.83;;;1.70;;
80404;SDS011;69733;48.744;9.176;2023-05-07T14:38:41;7.63;;;3.40;;
80404;SDS011;69733;48.744;9.176;2023-05-07T14:41:06;3.67;;;2.37;;
80404;SDS011;69733;48.744;9.176;2023-05-07T14:43:31;5.30;;;2.78;;
80404;SDS011;69733;48.744;9.176;2023-05-07T14:45:57;3.90;;;2.22;;
80404;SDS011;69733;48.744;9.176;2023-05-07T14:48:22;2.78;;;1.60;;
80404;SDS011;69733;48.744;9.176;2023-05-07T14:50:47;2.95;;;1.38;;
80404;SDS011;69733;48.744;9.176;2023-05-07T14:53:13;3.05;;;1.38;;
80404;SDS011;69733;48.744;9.176;2023-05-07T14:55:38;4.00;;;1.70;;
80404;SDS011;69733;48.744;9.176;2023-05-07T14:58:04;2.50;;;1.58;;
80404;SDS011;69733;48.744;9.176;2023-05-07T15:00:30;3.15;;;1.52;;
80404;SDS011;69733;48.744;9.176;2023-05-07T15:03:00;4.03;;;1.80;;